DAL1913 TJSJ-KDTW
Flight info
| Callsign | DAL1913 |
|---|---|
| Flight time | N/A |
| Altitude | 32000 |
| Route | ACONY3 PALDE DCT DONQU DCT LETON/M080F340 L451 JAINS/N0463F340 Y327 CLOWR DCT GARIC DCT LIB DCT PSK DCT BKW DCT JAMOX BONZZ2 |
| Aircraft | B739/M-SDE2E3FGHIRWXY/LB1 |
Departure
| Time | 2026-05-04 17:12 |
|---|---|
| Airport | Luis Munoz Marin International Airport (TJSJ) |
Arrival
| Time | N/A |
|---|---|
| Airport | Detroit Metropolitan Wayne County Airport (KDTW) |
| Time | Latitude | Longitude | Altitude | Speed | Heading |
|---|---|---|---|---|---|
| 2026-05-04 16:35 | 18.43629 | -66.00094 | -28 ft | 0 kts | 320° |
| 2026-05-04 17:00 | 18.43619 | -66.00085 | -50 ft | 4 kts | 320° |
| 2026-05-04 17:00 | 18.43566 | -66.00082 | -26 ft | 4 kts | 50° |
| 2026-05-04 17:01 | 18.43562 | -66.00088 | -29 ft | 0 kts | 50° |
| 2026-05-04 17:04 | 18.43574 | -66.00071 | -28 ft | 7 kts | 53° |
| 2026-05-04 17:04 | 18.43712 | -66.00000 | -38 ft | 14 kts | 356° |
| 2026-05-04 17:05 | 18.43883 | -66.00066 | -27 ft | 13 kts | 337° |
| 2026-05-04 17:05 | 18.44044 | -66.00136 | -46 ft | 12 kts | 338° |
| 2026-05-04 17:06 | 18.44192 | -66.00206 | -28 ft | 12 kts | 327° |
| 2026-05-04 17:06 | 18.44241 | -66.00279 | -34 ft | 14 kts | 266° |
| 2026-05-04 17:07 | 18.44170 | -66.00461 | -32 ft | 13 kts | 247° |
| 2026-05-04 17:07 | 18.44148 | -66.00518 | -31 ft | 13 kts | 247° |
| 2026-05-04 17:07 | 18.44100 | -66.00630 | -29 ft | 12 kts | 245° |
| 2026-05-04 17:07 | 18.44065 | -66.00710 | -48 ft | 12 kts | 246° |
| 2026-05-04 17:08 | 18.44037 | -66.00791 | -29 ft | 12 kts | 248° |
| 2026-05-04 17:08 | 18.43978 | -66.00938 | -45 ft | 10 kts | 247° |
| 2026-05-04 17:08 | 18.43950 | -66.01004 | -49 ft | 10 kts | 240° |
| 2026-05-04 17:09 | 18.43916 | -66.01085 | -43 ft | 14 kts | 247° |
| 2026-05-04 17:09 | 18.43878 | -66.01181 | -54 ft | 14 kts | 247° |
| 2026-05-04 17:09 | 18.43841 | -66.01276 | -46 ft | 14 kts | 248° |
| 2026-05-04 17:10 | 18.43769 | -66.01452 | -46 ft | 10 kts | 247° |
| 2026-05-04 17:10 | 18.43852 | -66.01562 | -47 ft | 9 kts | 60° |
| 2026-05-04 17:11 | 18.43894 | -66.01464 | -47 ft | 36 kts | 67° |
| 2026-05-04 17:11 | 18.44074 | -66.00997 | -45 ft | 99 kts | 67° |
| 2026-05-04 17:11 | 18.44828 | -65.99023 | 64 ft | 177 kts | 69° |
| 2026-05-04 17:12 | 18.45325 | -65.97781 | 403 ft | 190 kts | 66° |
| 2026-05-04 17:12 | 18.47118 | -65.95475 | 1122 ft | 234 kts | 31° |
| 2026-05-04 17:13 | 18.51868 | -65.97332 | 2434 ft | 266 kts | 311° |
| 2026-05-04 17:14 | 18.55630 | -66.02010 | 3924 ft | 291 kts | 309° |
| 2026-05-04 17:14 | 18.56940 | -66.03644 | 4594 ft | 293 kts | 310° |
| 2026-05-04 17:14 | 18.59575 | -66.06910 | 5902 ft | 297 kts | 310° |
| 2026-05-04 17:15 | 18.60917 | -66.08566 | 6574 ft | 298 kts | 311° |
| 2026-05-04 17:15 | 18.63638 | -66.11914 | 7843 ft | 301 kts | 310° |
| 2026-05-04 17:16 | 18.66395 | -66.15307 | 9003 ft | 308 kts | 310° |
| 2026-05-04 17:16 | 18.70630 | -66.20520 | 10478 ft | 328 kts | 309° |
| 2026-05-04 17:17 | 18.72129 | -66.22366 | 10647 ft | 344 kts | 310° |
| 2026-05-04 17:17 | 18.76968 | -66.28318 | 12029 ft | 358 kts | 309° |
| 2026-05-04 17:18 | 18.78595 | -66.30318 | 12511 ft | 362 kts | 309° |
| 2026-05-04 17:18 | 18.81891 | -66.34373 | 13579 ft | 365 kts | 309° |
| 2026-05-04 17:19 | 18.85204 | -66.38454 | 14574 ft | 367 kts | 308° |
| 2026-05-04 17:19 | 18.88499 | -66.42516 | 15581 ft | 366 kts | 308° |
| 2026-05-04 17:20 | 18.91793 | -66.46577 | 16497 ft | 370 kts | 308° |
| 2026-05-04 17:20 | 18.95404 | -66.50538 | 17430 ft | 373 kts | 314° |
| 2026-05-04 17:20 | 18.97296 | -66.52421 | 17892 ft | 374 kts | 314° |
| 2026-05-04 17:21 | 19.01097 | -66.56213 | 18685 ft | 378 kts | 313° |
| 2026-05-04 17:21 | 19.04908 | -66.60064 | 19273 ft | 385 kts | 313° |
| 2026-05-04 17:22 | 19.06848 | -66.62031 | 19586 ft | 388 kts | 313° |
| 2026-05-04 17:22 | 19.08827 | -66.63993 | 19897 ft | 392 kts | 315° |
| 2026-05-04 17:23 | 19.15115 | -66.69677 | 20827 ft | 401 kts | 317° |
| 2026-05-04 17:23 | 19.17253 | -66.71582 | 21127 ft | 403 kts | 318° |
| 2026-05-04 17:23 | 19.21558 | -66.75441 | 21694 ft | 409 kts | 318° |
| 2026-05-04 17:24 | 19.23704 | -66.77375 | 21973 ft | 412 kts | 317° |
| 2026-05-04 17:24 | 19.30304 | -66.83352 | 22760 ft | 421 kts | 317° |
| 2026-05-04 17:25 | 19.32533 | -66.85371 | 23031 ft | 423 kts | 318° |
| 2026-05-04 17:25 | 19.37035 | -66.89450 | 23508 ft | 429 kts | 317° |
| 2026-05-04 17:26 | 19.41586 | -66.93584 | 24044 ft | 430 kts | 318° |
| 2026-05-04 17:26 | 19.48366 | -66.99749 | 24806 ft | 432 kts | 317° |
| 2026-05-04 17:27 | 19.52930 | -67.03895 | 25354 ft | 431 kts | 317° |
| 2026-05-04 17:27 | 19.57488 | -67.08041 | 25866 ft | 432 kts | 317° |
| 2026-05-04 17:28 | 19.62012 | -67.12158 | 26396 ft | 432 kts | 318° |
| 2026-05-04 17:29 | 19.68890 | -67.18427 | 27030 ft | 435 kts | 317° |
| 2026-05-04 17:29 | 19.75791 | -67.24727 | 27655 ft | 439 kts | 317° |
| 2026-05-04 17:30 | 19.82722 | -67.31060 | 28316 ft | 441 kts | 317° |
| 2026-05-04 17:31 | 19.87374 | -67.35315 | 28718 ft | 442 kts | 317° |
| 2026-05-04 17:31 | 19.94394 | -67.41742 | 29309 ft | 445 kts | 317° |
| 2026-05-04 17:32 | 19.99086 | -67.46043 | 29691 ft | 446 kts | 317° |
| 2026-05-04 17:33 | 20.06128 | -67.52504 | 30223 ft | 449 kts | 317° |
| 2026-05-04 17:33 | 20.08494 | -67.54676 | 30355 ft | 450 kts | 317° |
| 2026-05-04 17:34 | 20.15631 | -67.61235 | 30703 ft | 454 kts | 317° |
| 2026-05-04 17:34 | 20.18018 | -67.63431 | 30872 ft | 454 kts | 317° |
| 2026-05-04 17:35 | 20.25180 | -67.70023 | 31415 ft | 454 kts | 317° |
| 2026-05-04 17:35 | 20.29931 | -67.74402 | 31707 ft | 456 kts | 317° |
| 2026-05-04 17:35 | 20.32331 | -67.76614 | 31892 ft | 456 kts | 316° |
| 2026-05-04 17:36 | 20.34718 | -67.78816 | 32074 ft | 454 kts | 316° |
| 2026-05-04 17:36 | 20.39511 | -67.83241 | 32052 ft | 457 kts | 316° |
| 2026-05-04 17:37 | 20.44316 | -67.87680 | 32064 ft | 458 kts | 316° |
| 2026-05-04 17:37 | 20.49108 | -67.92111 | 32059 ft | 460 kts | 316° |
| 2026-05-04 17:38 | 20.53947 | -67.96590 | 32059 ft | 461 kts | 316° |
| 2026-05-04 17:38 | 20.58798 | -68.01084 | 32056 ft | 463 kts | 316° |
| 2026-05-04 17:39 | 20.66100 | -68.07856 | 32054 ft | 464 kts | 316° |
| 2026-05-04 17:39 | 20.70950 | -68.12358 | 32058 ft | 465 kts | 316° |
| 2026-05-04 17:40 | 20.75931 | -68.16795 | 32054 ft | 467 kts | 318° |
| 2026-05-04 17:40 | 20.81011 | -68.21143 | 32055 ft | 468 kts | 318° |